createdAt,value
2018-05-23T00:01:09.270Z,36.27
2018-05-23T00:03:45.991Z,33.80
2018-05-23T00:06:15.703Z,36.67
2018-05-23T00:08:45.392Z,44.77
2018-05-23T00:11:15.148Z,51.40
2018-05-23T00:13:44.987Z,56.80
2018-05-23T00:16:15.634Z,50.27
2018-05-23T00:18:45.540Z,55.00
2018-05-23T00:21:15.959Z,65.07
2018-05-23T00:23:46.376Z,62.10
2018-05-23T00:26:17.102Z,68.83
2018-05-23T00:28:48.050Z,61.40
2018-05-23T00:31:17.805Z,67.23
2018-05-23T00:33:47.486Z,58.97
2018-05-23T00:36:17.885Z,73.13
2018-05-23T00:38:47.608Z,68.93
2018-05-23T00:41:17.422Z,60.13
2018-05-23T00:43:48.294Z,71.07
2018-05-23T00:46:17.927Z,70.50
2018-05-23T00:48:47.725Z,67.57
2018-05-23T00:51:17.625Z,74.37
2018-05-23T00:53:47.291Z,62.67
2018-05-23T00:56:17.286Z,65.40
2018-05-23T00:58:47.035Z,57.20
2018-05-23T01:01:17.519Z,73.37
2018-05-23T01:03:47.285Z,56.27
2018-05-23T01:06:17.066Z,61.30
2018-05-23T01:08:46.833Z,69.30
2018-05-23T01:11:16.648Z,60.67
2018-05-23T01:13:46.360Z,59.40
2018-05-23T01:16:16.067Z,69.33
2018-05-23T01:18:46.059Z,69.73
2018-05-23T01:21:16.407Z,62.67
2018-05-23T01:23:46.008Z,57.83
2018-05-23T01:26:15.749Z,51.90
2018-05-23T01:28:45.364Z,49.17
2018-05-23T01:31:15.051Z,46.80
2018-05-23T01:33:47.428Z,51.30
2018-05-23T01:36:21.387Z,49.37
2018-05-23T01:38:51.607Z,49.97
2018-05-23T01:41:21.491Z,50.63
2018-05-23T01:43:51.301Z,56.67
2018-05-23T01:46:21.024Z,63.53
2018-05-23T01:49:02.848Z,57.00
2018-05-23T01:51:34.524Z,66.50
2018-05-23T01:54:06.791Z,71.80
2018-05-23T01:56:36.534Z,69.93
2018-05-23T01:59:07.297Z,61.13
2018-05-23T02:01:36.923Z,66.77
2018-05-23T02:04:06.723Z,67.40
2018-05-23T02:09:58.063Z,65.20
2018-05-23T02:12:38.819Z,67.57
2018-05-23T02:15:12.302Z,60.43
2018-05-23T02:17:56.043Z,65.57
2018-05-23T02:23:58.559Z,61.00
2018-05-23T02:26:33.975Z,59.07
2018-05-23T02:31:42.389Z,52.37
2018-05-23T02:34:51.172Z,64.97
2018-05-23T02:37:20.603Z,60.90
2018-05-23T02:39:52.092Z,59.53
2018-05-23T02:42:21.567Z,62.50
2018-05-23T02:44:51.848Z,58.87
2018-05-23T02:47:21.318Z,57.67
2018-05-23T02:50:15.203Z,61.87
2018-05-23T02:52:45.028Z,76.57
2018-05-23T02:55:15.172Z,58.43
2018-05-23T02:57:44.503Z,62.70
2018-05-23T03:00:13.748Z,101.37
2018-05-23T03:02:43.827Z,59.33
2018-05-23T03:05:13.088Z,58.03
2018-05-23T03:07:43.363Z,73.77
2018-05-23T03:10:28.460Z,131.83
2018-05-23T03:12:57.807Z,67.40
2018-05-23T03:15:27.448Z,78.37
2018-05-23T03:17:58.730Z,95.07
2018-05-23T03:20:29.823Z,90.10
2018-05-23T03:22:59.234Z,86.23
2018-05-23T03:25:30.112Z,97.13
2018-05-23T03:27:59.539Z,86.40
2018-05-23T03:30:30.138Z,76.07
2018-05-23T03:32:59.434Z,81.90
2018-05-23T03:38:14.308Z,50.93
2018-05-23T03:44:09.133Z,58.17
2018-05-23T03:46:38.641Z,45.67
2018-05-23T03:49:08.096Z,39.90
2018-05-23T03:51:37.663Z,40.60
2018-05-23T03:54:08.815Z,32.03
2018-05-23T03:56:38.215Z,81.63
2018-05-23T03:59:08.958Z,111.23
2018-05-23T04:01:51.244Z,135.13
2018-05-23T04:04:32.411Z,192.03
2018-05-23T04:10:23.842Z,47.73
2018-05-23T04:12:54.026Z,45.70
2018-05-23T04:15:23.955Z,41.03
2018-05-23T04:17:53.545Z,24.53
2018-05-23T04:23:44.595Z,23.60
2018-05-23T04:26:14.059Z,21.40
2018-05-23T04:28:43.397Z,28.10
2018-05-23T04:31:12.845Z,23.20
2018-05-23T04:33:43.446Z,20.30
2018-05-23T04:36:36.708Z,25.77
2018-05-23T04:39:08.018Z,25.73
2018-05-23T04:41:39.593Z,27.47
2018-05-23T04:44:09.789Z,22.60
2018-05-23T04:46:39.563Z,24.07
2018-05-23T04:52:01.774Z,24.70
2018-05-23T04:54:31.475Z,22.93
2018-05-23T04:57:41.225Z,27.90
2018-05-23T05:00:50.146Z,82.63
2018-05-23T05:03:21.545Z,55.50
2018-05-23T05:12:13.463Z,53.80
2018-05-23T05:14:43.889Z,45.83
2018-05-23T05:20:36.137Z,41.07
2018-05-23T05:23:06.130Z,45.83
2018-05-23T05:25:45.103Z,46.93
2018-05-23T05:28:23.840Z,38.30
2018-05-23T05:34:03.215Z,90.77
2018-05-23T05:36:40.239Z,115.10
2018-05-23T05:39:09.813Z,143.70
2018-05-23T05:42:16.534Z,136.37
2018-05-23T05:44:46.074Z,113.30
2018-05-23T05:47:17.037Z,75.17
2018-05-23T05:49:47.381Z,47.77
2018-05-23T05:52:16.805Z,42.13
2018-05-23T05:54:50.396Z,45.60
2018-05-23T05:57:20.668Z,34.87
2018-05-23T05:59:50.084Z,37.20
2018-05-23T06:02:19.463Z,44.17
2018-05-23T06:04:52.662Z,52.33
2018-05-23T06:07:22.145Z,73.13
2018-05-23T06:09:51.565Z,75.07
2018-05-23T06:12:21.037Z,67.07
2018-05-23T06:14:51.999Z,65.90
2018-05-23T06:17:21.564Z,54.17
2018-05-23T06:19:56.787Z,60.63
2018-05-23T06:22:27.746Z,39.57
2018-05-23T06:24:58.597Z,51.27
2018-05-23T06:27:32.345Z,89.67
2018-05-23T06:30:01.795Z,159.23
2018-05-23T06:32:31.959Z,125.93
2018-05-23T06:37:58.204Z,97.90
2018-05-23T06:40:42.061Z,68.43
2018-05-23T06:43:12.367Z,48.27
2018-05-23T06:46:09.183Z,42.83
2018-05-23T06:48:38.611Z,39.47
2018-05-23T06:51:08.117Z,40.70
2018-05-23T06:53:37.552Z,35.40
2018-05-23T06:56:07.118Z,32.57
2018-05-23T06:58:36.728Z,28.90
2018-05-23T07:01:40.937Z,27.97
2018-05-23T07:04:11.297Z,27.87
2018-05-23T07:06:40.901Z,29.50
2018-05-23T07:09:10.427Z,30.30
2018-05-23T07:11:40.739Z,28.47
2018-05-23T07:14:57.843Z,59.87
2018-05-23T07:17:27.505Z,70.13
2018-05-23T07:19:57.085Z,67.97
2018-05-23T07:22:26.863Z,69.80
2018-05-23T07:24:56.620Z,70.47
2018-05-23T07:27:26.202Z,116.27
2018-05-23T07:29:55.831Z,119.17
2018-05-23T07:32:25.378Z,107.27
2018-05-23T07:34:55.050Z,140.77
2018-05-23T07:37:25.595Z,156.13
2018-05-23T07:39:55.096Z,133.00
2018-05-23T07:42:24.681Z,114.73
2018-05-23T07:44:54.482Z,88.40
2018-05-23T07:47:24.074Z,85.17
2018-05-23T07:49:53.615Z,62.10
2018-05-23T07:52:23.970Z,57.47
2018-05-23T07:58:30.575Z,42.67
2018-05-23T08:01:00.136Z,40.43
2018-05-23T08:03:30.386Z,40.37
2018-05-23T08:05:59.943Z,37.37
2018-05-23T08:08:29.960Z,36.97
2018-05-23T08:10:59.986Z,39.43
2018-05-23T08:13:29.552Z,32.27
2018-05-23T08:15:58.983Z,35.13
2018-05-23T08:18:28.705Z,41.03
2018-05-23T08:20:58.349Z,33.73
2018-05-23T08:23:27.888Z,37.97
2018-05-23T08:25:58.346Z,31.50
2018-05-23T08:28:27.847Z,30.63
2018-05-23T08:30:57.466Z,34.33
2018-05-23T08:33:26.910Z,52.33
2018-05-23T08:35:56.454Z,47.90
2018-05-23T08:38:25.977Z,60.57
2018-05-23T08:40:56.275Z,58.03
2018-05-23T08:43:25.776Z,54.93
2018-05-23T08:45:55.281Z,84.60
2018-05-23T08:48:24.899Z,107.27
2018-05-23T08:50:54.404Z,136.57
2018-05-23T08:53:24.031Z,167.60
2018-05-23T08:55:57.521Z,158.17
2018-05-23T08:58:27.054Z,122.17
2018-05-23T09:00:56.536Z,83.50
2018-05-23T09:03:25.949Z,68.90
2018-05-23T09:05:55.568Z,66.53
2018-05-23T09:08:25.117Z,70.37
2018-05-23T09:10:55.016Z,110.07
2018-05-23T09:13:24.465Z,140.13
2018-05-23T09:15:54.130Z,119.80
2018-05-23T09:18:23.623Z,104.23
2018-05-23T09:20:53.829Z,85.53
2018-05-23T09:23:23.823Z,85.23
2018-05-23T09:25:53.364Z,94.50
2018-05-23T09:28:24.673Z,86.97
2018-05-23T09:30:54.997Z,66.53
2018-05-23T09:33:24.477Z,64.87
2018-05-23T09:35:54.870Z,61.73
2018-05-23T09:38:26.067Z,56.67
2018-05-23T09:40:55.636Z,61.70
2018-05-23T09:43:25.080Z,74.47
2018-05-23T09:45:54.842Z,62.63
2018-05-23T09:48:24.509Z,58.07
2018-05-23T09:50:54.058Z,64.80
2018-05-23T09:53:23.869Z,64.73
2018-05-23T09:55:53.429Z,65.73
2018-05-23T09:58:23.176Z,63.30
2018-05-23T10:00:52.770Z,68.90
2018-05-23T10:03:22.346Z,66.27
2018-05-23T10:05:51.822Z,80.67
2018-05-23T10:08:21.314Z,110.73
2018-05-23T10:10:56.924Z,111.10
2018-05-23T10:13:26.537Z,104.00
2018-05-23T10:15:56.141Z,96.70
2018-05-23T10:18:26.066Z,87.80
2018-05-23T10:20:55.704Z,83.77
2018-05-23T10:23:26.095Z,96.87
2018-05-23T10:25:55.616Z,86.10
2018-05-23T10:28:25.415Z,114.20
2018-05-23T10:30:55.776Z,115.20
2018-05-23T10:33:25.293Z,93.20
2018-05-23T10:35:54.992Z,77.20
2018-05-23T10:38:24.744Z,63.60
2018-05-23T10:40:54.394Z,64.50
2018-05-23T10:43:23.838Z,57.17
2018-05-23T10:45:53.318Z,56.73
2018-05-23T10:48:22.756Z,57.23
2018-05-23T10:50:52.352Z,61.17
2018-05-23T10:53:21.879Z,52.77
2018-05-23T10:55:51.263Z,58.23
2018-05-23T10:58:20.726Z,57.87
2018-05-23T11:00:50.277Z,53.37
2018-05-23T11:03:19.827Z,52.83
2018-05-23T11:05:49.544Z,58.37
2018-05-23T11:08:18.986Z,65.00
2018-05-23T11:10:49.493Z,85.70
2018-05-23T11:13:19.073Z,87.90
2018-05-23T11:19:09.445Z,77.80
2018-05-23T11:21:38.770Z,62.93
2018-05-23T11:24:08.855Z,68.20
2018-05-23T11:26:38.288Z,68.53
2018-05-23T11:29:08.624Z,65.60
2018-05-23T11:31:38.853Z,61.60
2018-05-23T11:34:09.296Z,62.77
2018-05-23T11:36:39.193Z,63.30
2018-05-23T11:39:09.819Z,59.93
2018-05-23T11:41:53.827Z,59.30
2018-05-23T11:44:24.980Z,66.03
2018-05-23T11:46:55.633Z,69.30
2018-05-23T11:49:25.825Z,63.20
2018-05-23T11:51:56.593Z,69.00
2018-05-23T11:54:25.939Z,63.43
2018-05-23T12:00:27.226Z,48.83
2018-05-23T12:02:56.824Z,55.30
2018-05-23T12:05:26.850Z,40.40
2018-05-23T12:07:56.364Z,54.57
2018-05-23T12:10:25.883Z,72.27
2018-05-23T12:18:59.644Z,29.07
2018-05-23T12:21:29.131Z,37.87
2018-05-23T12:23:59.443Z,46.10
2018-05-23T12:26:29.745Z,46.93
2018-05-23T12:29:03.346Z,33.47
2018-05-23T12:31:34.315Z,34.17
2018-05-23T12:34:05.745Z,33.93
2018-05-23T12:36:35.845Z,28.53
2018-05-23T12:39:09.649Z,58.77
2018-05-23T12:41:44.100Z,67.07
2018-05-23T12:46:52.471Z,59.47
2018-05-23T12:49:26.224Z,77.77
2018-05-23T12:54:42.704Z,49.70
2018-05-23T12:57:12.855Z,48.70
2018-05-23T13:02:48.624Z,46.77
2018-05-23T13:05:22.665Z,46.83
2018-05-23T13:07:53.283Z,52.10
2018-05-23T13:10:24.771Z,37.10
2018-05-23T13:13:42.721Z,47.13
2018-05-23T13:16:12.428Z,40.80
2018-05-23T13:18:42.827Z,42.27
2018-05-23T13:21:13.273Z,38.00
2018-05-23T13:23:43.293Z,43.57
2018-05-23T13:26:13.211Z,37.37
2018-05-23T13:28:42.790Z,35.93
2018-05-23T13:31:13.590Z,34.13
2018-05-23T13:33:44.243Z,34.80
2018-05-23T13:36:19.473Z,40.70
2018-05-23T13:38:49.706Z,39.10
2018-05-23T13:41:19.286Z,49.03
2018-05-23T13:43:48.746Z,62.00
2018-05-23T13:46:18.233Z,45.50
2018-05-23T13:48:47.752Z,44.43
2018-05-23T13:51:17.369Z,30.20
2018-05-23T13:53:46.915Z,47.97
2018-05-23T13:56:17.213Z,31.23
2018-05-23T13:58:46.706Z,34.43
2018-05-23T14:01:16.188Z,34.27
2018-05-23T14:03:45.757Z,44.43
2018-05-23T14:06:15.559Z,23.93
2018-05-23T14:08:45.412Z,30.33
2018-05-23T14:11:15.104Z,29.53
2018-05-23T14:13:50.466Z,38.83
2018-05-23T14:16:19.983Z,26.57
2018-05-23T14:18:52.430Z,21.80
2018-05-23T14:21:23.246Z,19.80
2018-05-23T14:23:53.445Z,24.40
2018-05-23T14:26:35.481Z,16.57
2018-05-23T14:29:09.649Z,22.83
2018-05-23T14:31:39.967Z,20.40
2018-05-23T14:34:11.277Z,17.23
2018-05-23T14:36:57.539Z,15.67
2018-05-23T14:39:29.124Z,19.23
2018-05-23T14:42:00.384Z,16.60
2018-05-23T14:44:31.128Z,18.97
2018-05-23T14:47:03.660Z,19.60
2018-05-23T14:49:38.552Z,17.57
2018-05-23T14:52:08.133Z,14.97
2018-05-23T14:54:38.378Z,14.40
2018-05-23T14:57:09.080Z,19.63
2018-05-23T14:59:39.540Z,17.40
2018-05-23T15:02:09.933Z,13.77
2018-05-23T15:04:43.744Z,13.30
2018-05-23T15:07:14.554Z,18.00
2018-05-23T15:09:45.191Z,20.47
2018-05-23T15:12:14.700Z,19.57
2018-05-23T15:18:06.555Z,21.43
2018-05-23T15:20:36.380Z,19.60
2018-05-23T15:23:06.552Z,26.40
2018-05-23T15:29:01.385Z,17.95
2018-05-23T15:31:32.246Z,20.02
2018-05-23T15:34:01.762Z,18.33
2018-05-23T15:36:31.617Z,15.87
2018-05-23T15:39:02.058Z,17.45
2018-05-23T15:41:31.971Z,16.17
2018-05-23T15:44:03.426Z,14.50
2018-05-23T15:46:42.365Z,32.57
2018-05-23T15:49:23.241Z,23.80
2018-05-23T15:51:56.209Z,16.23
2018-05-23T15:54:25.668Z,14.67
2018-05-23T15:56:55.287Z,15.20
2018-05-23T15:59:24.866Z,11.57
2018-05-23T16:01:54.959Z,14.70
2018-05-23T16:04:26.740Z,10.65
2018-05-23T16:07:43.292Z,15.50
2018-05-23T16:10:13.235Z,12.07
2018-05-23T16:12:44.346Z,12.20
2018-05-23T16:15:14.852Z,11.52
2018-05-23T16:17:45.441Z,12.73
2018-05-23T16:20:18.070Z,10.40
2018-05-23T16:22:51.643Z,12.25
2018-05-23T16:25:21.241Z,11.00
2018-05-23T16:27:51.115Z,11.25
2018-05-23T16:33:44.552Z,14.13
2018-05-23T16:36:21.622Z,13.95
2018-05-23T16:41:37.631Z,13.48
2018-05-23T16:44:12.003Z,14.60
2018-05-23T16:46:42.428Z,16.92
2018-05-23T16:49:13.018Z,14.15
2018-05-23T16:51:42.944Z,22.85
2018-05-23T16:54:13.753Z,18.70
2018-05-23T16:56:44.211Z,18.50
2018-05-23T16:59:13.977Z,16.42
2018-05-23T17:01:44.511Z,17.27
2018-05-23T17:04:17.717Z,23.90
2018-05-23T17:06:51.265Z,21.50
2018-05-23T17:09:22.483Z,20.67
2018-05-23T17:11:56.360Z,17.05
2018-05-23T17:14:33.752Z,18.37
2018-05-23T17:17:09.664Z,16.40
2018-05-23T17:19:39.617Z,17.00
2018-05-23T17:22:09.330Z,22.92
2018-05-23T17:24:39.083Z,19.42
2018-05-23T17:27:23.626Z,14.75
2018-05-23T17:29:55.020Z,15.73
2018-05-23T17:32:25.321Z,15.95
2018-05-23T17:34:55.074Z,16.15
2018-05-23T17:37:24.827Z,25.88
2018-05-23T17:39:55.871Z,16.85
2018-05-23T17:42:25.555Z,16.85
2018-05-23T17:48:16.074Z,22.23
2018-05-23T17:54:12.474Z,20.60
2018-05-23T17:56:53.080Z,23.50
2018-05-23T17:59:23.552Z,14.27
2018-05-23T18:01:54.049Z,16.23
2018-05-23T18:04:23.631Z,15.77
2018-05-23T18:06:53.525Z,14.27
2018-05-23T18:09:23.307Z,18.30
2018-05-23T18:11:53.726Z,15.98
2018-05-23T18:14:33.449Z,13.65
2018-05-23T18:17:04.171Z,14.30
2018-05-23T18:19:43.173Z,15.27
2018-05-23T18:22:16.249Z,26.45
2018-05-23T18:24:47.579Z,14.13
2018-05-23T18:27:19.689Z,18.55
2018-05-23T18:29:49.486Z,15.73
2018-05-23T18:32:19.693Z,16.35
2018-05-23T18:34:49.850Z,15.68
2018-05-23T18:37:19.673Z,23.70
2018-05-23T18:39:49.615Z,17.70
2018-05-23T18:42:19.564Z,13.90
2018-05-23T18:44:49.121Z,13.85
2018-05-23T18:47:26.961Z,18.27
2018-05-23T18:49:57.738Z,17.20
2018-05-23T18:52:28.496Z,17.30
2018-05-23T18:55:00.608Z,14.48
2018-05-23T18:57:31.243Z,16.12
2018-05-23T19:00:01.615Z,17.30
2018-05-23T19:02:31.448Z,16.00
2018-05-23T19:05:01.094Z,15.93
2018-05-23T19:07:31.547Z,16.70
2018-05-23T19:10:01.171Z,17.27
2018-05-23T19:12:31.290Z,18.15
2018-05-23T19:15:00.986Z,14.87
2018-05-23T19:17:30.776Z,14.07
2018-05-23T19:20:03.764Z,16.45
2018-05-23T19:22:44.946Z,12.68
2018-05-23T19:25:42.025Z,13.70
2018-05-23T19:31:36.583Z,13.13
2018-05-23T19:34:12.248Z,14.18
2018-05-23T19:36:51.122Z,14.50
2018-05-23T19:39:21.071Z,30.23
2018-05-23T19:41:55.634Z,15.35
2018-05-23T19:44:33.099Z,15.02
2018-05-23T19:47:16.265Z,19.75
2018-05-23T19:50:01.560Z,22.55
2018-05-23T19:55:29.696Z,17.05
2018-05-23T19:58:22.083Z,15.30
2018-05-23T21:53:18.752Z,46.90
2018-05-23T21:55:49.065Z,32.00
2018-05-23T21:58:19.522Z,34.87
2018-05-23T22:00:51.099Z,28.43
2018-05-23T22:03:20.527Z,32.00
2018-05-23T22:05:53.249Z,29.77
2018-05-23T22:08:22.686Z,34.67
2018-05-23T22:10:52.018Z,31.77
2018-05-23T22:13:21.380Z,33.77
2018-05-23T22:15:52.595Z,29.13
2018-05-23T22:18:54.339Z,32.57
2018-05-23T22:21:24.855Z,28.97
2018-05-23T22:23:54.484Z,33.73
2018-05-23T22:26:24.076Z,31.27
2018-05-23T22:28:53.708Z,40.03
2018-05-23T22:31:23.340Z,44.90
2018-05-23T22:33:53.936Z,52.10
2018-05-23T22:36:27.305Z,44.80
2018-05-23T22:38:56.927Z,42.90
2018-05-23T22:41:26.652Z,69.67
2018-05-23T22:47:17.627Z,45.47
2018-05-23T22:49:47.214Z,51.10
2018-05-23T22:52:16.766Z,44.23
2018-05-23T22:54:46.880Z,42.67
2018-05-23T22:57:17.204Z,48.23
2018-05-23T22:59:46.811Z,47.87
2018-05-23T23:02:16.405Z,49.80
2018-05-23T23:04:46.072Z,50.73
2018-05-23T23:07:15.611Z,50.83
2018-05-23T23:09:45.232Z,47.27
2018-05-23T23:12:14.780Z,53.17
2018-05-23T23:14:44.440Z,44.43
2018-05-23T23:17:14.088Z,46.97
2018-05-23T23:19:43.741Z,53.03
2018-05-23T23:22:33.461Z,59.63
2018-05-23T23:25:03.922Z,58.37
2018-05-23T23:27:33.536Z,77.07
2018-05-23T23:30:06.426Z,60.23
2018-05-23T23:32:36.029Z,62.53
2018-05-23T23:35:06.500Z,78.90
2018-05-23T23:37:37.130Z,48.77
2018-05-23T23:40:07.621Z,59.00
2018-05-23T23:42:37.171Z,63.87
2018-05-23T23:45:06.825Z,60.83
2018-05-23T23:47:36.363Z,52.43
2018-05-23T23:50:12.454Z,66.30
2018-05-23T23:52:42.581Z,81.17
2018-05-23T23:55:28.126Z,64.50
2018-05-23T23:58:04.238Z,76.87
